createdAt,value
2023-02-12T00:01:40.971Z,101947.69
2023-02-12T00:04:09.858Z,101943.90
2023-02-12T00:06:40.306Z,101944.73
2023-02-12T00:09:08.668Z,101940.70
2023-02-12T00:11:37.060Z,101946.45
2023-02-12T00:14:05.893Z,101947.34
2023-02-12T00:16:34.437Z,101958.27
2023-02-12T00:19:03.023Z,101958.98
2023-02-12T00:21:31.409Z,101956.23
2023-02-12T00:23:59.702Z,101946.29
2023-02-12T00:26:28.292Z,101939.67
2023-02-12T00:28:57.079Z,101944.95
2023-02-12T00:31:28.969Z,101946.60
2023-02-12T00:34:01.015Z,101943.42
2023-02-12T00:36:31.939Z,101936.31
2023-02-12T00:39:00.958Z,101936.67
2023-02-12T00:41:30.049Z,101936.05
2023-02-12T00:43:58.652Z,101931.95
2023-02-12T00:46:26.850Z,101935.33
2023-02-12T00:48:55.611Z,101940.46
2023-02-12T00:51:24.200Z,101940.70
2023-02-12T00:53:52.382Z,101934.98
2023-02-12T00:56:20.570Z,101934.09
2023-02-12T00:58:51.098Z,101935.81
2023-02-12T01:01:19.755Z,101940.13
2023-02-12T01:03:48.579Z,101938.84
2023-02-12T01:06:17.066Z,101929.46
2023-02-12T01:08:51.610Z,101920.89
2023-02-12T01:11:20.901Z,101921.83
2023-02-12T01:13:50.207Z,101923.48
2023-02-12T01:16:22.250Z,101923.70
2023-02-12T01:18:55.827Z,101920.89
2023-02-12T01:21:28.422Z,101923.52
2023-02-12T01:23:58.244Z,101920.52
2023-02-12T01:26:28.305Z,101928.28
2023-02-12T01:29:01.537Z,101922.23
2023-02-12T01:31:33.561Z,101929.59
2023-02-12T01:34:03.892Z,101927.46
2023-02-12T01:36:35.512Z,101923.37
2023-02-12T01:39:06.007Z,101921.86
2023-02-12T01:41:39.378Z,101921.41
2023-02-12T01:44:13.184Z,101928.52
2023-02-12T01:46:43.042Z,101923.09
2023-02-12T01:49:17.518Z,101927.71
2023-02-12T01:51:48.063Z,101922.69
2023-02-12T01:54:20.130Z,101922.09
2023-02-12T01:56:49.470Z,101918.12
2023-02-12T01:59:20.376Z,101921.36
2023-02-12T02:01:49.016Z,101922.16
2023-02-12T02:04:23.505Z,101924.13
2023-02-12T02:07:03.544Z,101924.89
2023-02-12T02:09:35.105Z,101924.98
2023-02-12T02:12:23.027Z,101931.29
2023-02-12T02:14:54.756Z,101935.20
2023-02-12T02:17:40.877Z,101937.46
2023-02-12T02:21:06.770Z,101938.67
2023-02-12T02:23:35.156Z,101947.98
2023-02-12T02:26:23.189Z,101949.54
2023-02-12T02:29:29.844Z,101948.27
2023-02-12T02:32:17.278Z,101955.13
2023-02-12T02:34:58.957Z,101959.36
2023-02-12T02:37:49.335Z,101961.45
2023-02-12T02:40:24.807Z,101965.15
2023-02-12T02:42:53.471Z,101963.55
2023-02-12T02:45:35.264Z,101969.53
2023-02-12T02:48:15.418Z,101972.49
2023-02-12T02:50:53.214Z,101972.64
2023-02-12T02:53:32.450Z,101973.84
2023-02-12T02:56:06.051Z,101977.19
2023-02-12T02:58:46.716Z,101977.83
2023-02-12T03:01:21.688Z,101984.16
2023-02-12T03:03:58.025Z,101982.04
2023-02-12T03:06:36.170Z,101983.48
2023-02-12T03:09:15.353Z,101983.85
2023-02-12T03:11:44.043Z,101981.57
2023-02-12T03:14:27.783Z,101983.64
2023-02-12T03:17:28.706Z,101981.85
2023-02-12T03:20:05.270Z,101983.25
2023-02-12T03:22:39.904Z,101987.43
2023-02-12T03:25:18.321Z,101989.39
2023-02-12T03:27:58.548Z,101989.00
2023-02-12T03:30:39.417Z,101990.71
2023-02-12T03:33:07.728Z,101988.42
2023-02-12T03:35:44.298Z,101988.92
2023-02-12T03:38:26.604Z,101987.97
2023-02-12T03:41:09.318Z,101985.98
2023-02-12T03:43:57.956Z,101986.01
2023-02-12T03:46:47.270Z,101985.41
2023-02-12T03:49:24.755Z,101983.92
2023-02-12T03:51:54.122Z,101986.63
2023-02-12T03:54:23.232Z,101986.44
2023-02-12T03:57:12.391Z,101989.05
2023-02-12T03:59:41.495Z,101994.33
2023-02-12T04:02:10.497Z,101992.90
2023-02-12T04:04:39.472Z,101994.09
2023-02-12T04:07:08.436Z,102000.06
2023-02-12T04:09:36.853Z,102006.30
2023-02-12T04:12:28.317Z,102006.73
2023-02-12T04:15:17.725Z,102009.36
2023-02-12T04:18:10.687Z,102009.51
2023-02-12T04:20:54.920Z,102011.76
2023-02-12T04:23:55.442Z,102017.98
2023-02-12T04:26:49.919Z,102022.09
2023-02-12T04:29:24.546Z,102026.23
2023-02-12T04:32:31.025Z,102024.54
2023-02-12T04:34:59.385Z,102033.12
2023-02-12T04:37:42.285Z,102032.41
2023-02-12T04:40:14.786Z,102038.05
2023-02-12T04:42:49.067Z,102038.91
2023-02-12T04:45:29.558Z,102044.79
2023-02-12T04:47:58.049Z,102042.20
2023-02-12T04:50:28.580Z,102045.97
2023-02-12T04:52:56.760Z,102047.08
2023-02-12T04:55:25.245Z,102048.86
2023-02-12T04:57:53.534Z,102051.44
2023-02-12T05:00:22.369Z,102058.43
2023-02-12T05:02:51.220Z,102060.80
2023-02-12T05:05:21.087Z,102058.55
2023-02-12T05:07:50.003Z,102064.55
2023-02-12T05:10:18.724Z,102067.59
2023-02-12T05:12:47.219Z,102073.81
2023-02-12T05:15:16.005Z,102077.84
2023-02-12T05:17:45.943Z,102080.62
2023-02-12T05:20:14.512Z,102086.05
2023-02-12T05:22:43.003Z,102087.08
2023-02-12T05:25:11.904Z,102091.96
2023-02-12T05:27:40.280Z,102097.04
2023-02-12T05:30:09.681Z,102101.79
2023-02-12T05:32:38.083Z,102103.56
2023-02-12T05:35:07.358Z,102107.10
2023-02-12T05:37:36.851Z,102111.02
2023-02-12T05:40:07.149Z,102123.24
2023-02-12T05:42:35.499Z,102126.30
2023-02-12T05:45:04.342Z,102127.73
2023-02-12T05:47:32.573Z,102133.56
2023-02-12T05:50:01.367Z,102141.56
2023-02-12T05:52:30.168Z,102146.88
2023-02-12T05:54:58.445Z,102151.50
2023-02-12T05:57:26.830Z,102151.70
2023-02-12T05:59:55.010Z,102155.22
2023-02-12T06:02:23.656Z,102161.38
2023-02-12T06:04:52.390Z,102164.71
2023-02-12T06:07:21.808Z,102169.63
2023-02-12T06:09:50.895Z,102172.24
2023-02-12T06:12:19.384Z,102177.95
2023-02-12T06:14:47.573Z,102185.89
2023-02-12T06:17:15.741Z,102184.78
2023-02-12T06:19:43.920Z,102184.61
2023-02-12T06:22:12.414Z,102190.07
2023-02-12T06:24:40.790Z,102193.23
2023-02-12T06:27:09.176Z,102198.11
2023-02-12T06:29:37.566Z,102203.52
2023-02-12T06:32:08.689Z,102214.23
2023-02-12T06:34:37.301Z,102216.73
2023-02-12T06:37:06.304Z,102223.42
2023-02-12T06:39:34.487Z,102225.13
2023-02-12T06:42:02.970Z,102227.02
2023-02-12T06:44:31.354Z,102233.84
2023-02-12T06:46:59.814Z,102236.41
2023-02-12T06:49:28.329Z,102241.63
2023-02-12T06:51:56.710Z,102241.68
2023-02-12T06:54:24.890Z,102250.95
2023-02-12T06:56:53.070Z,102253.89
2023-02-12T06:59:21.663Z,102255.17
2023-02-12T07:01:50.150Z,102262.88
2023-02-12T07:04:18.768Z,102264.58
2023-02-12T07:06:47.233Z,102269.10
2023-02-12T07:09:15.711Z,102270.02
2023-02-12T07:11:44.200Z,102275.55
2023-02-12T07:14:17.200Z,102278.08
2023-02-12T07:16:45.657Z,102284.88
2023-02-12T07:19:14.264Z,102283.36
2023-02-12T07:21:42.973Z,102291.55
2023-02-12T07:24:12.547Z,102293.61
2023-02-12T07:26:41.895Z,102299.61
2023-02-12T07:29:10.610Z,102301.81
2023-02-12T07:31:39.910Z,102303.91
2023-02-12T07:34:08.050Z,102310.44
2023-02-12T07:36:36.637Z,102315.77
2023-02-12T07:39:05.537Z,102316.84
2023-02-12T07:41:35.965Z,102319.33
2023-02-12T07:44:10.690Z,102320.56
2023-02-12T07:46:48.651Z,102320.86
2023-02-12T07:49:20.542Z,102327.06
2023-02-12T07:51:50.518Z,102326.60
2023-02-12T07:54:18.901Z,102326.92
2023-02-12T07:56:47.596Z,102328.05
2023-02-12T07:59:18.379Z,102332.50
2023-02-12T08:01:52.109Z,102332.05
2023-02-12T08:04:23.717Z,102336.86
2023-02-12T08:06:54.549Z,102337.81
2023-02-12T08:09:27.128Z,102341.25
2023-02-12T08:11:56.004Z,102346.52
2023-02-12T08:14:24.266Z,102348.73
2023-02-12T08:16:53.362Z,102348.88
2023-02-12T08:19:26.217Z,102355.23
2023-02-12T08:21:56.349Z,102356.47
2023-02-12T08:24:25.856Z,102360.23
2023-02-12T08:26:54.271Z,102361.39
2023-02-12T08:29:26.345Z,102368.15
2023-02-12T08:31:59.758Z,102370.96
2023-02-12T08:34:30.886Z,102376.70
2023-02-12T08:36:59.678Z,102381.69
2023-02-12T08:39:29.593Z,102386.42
2023-02-12T08:41:59.627Z,102392.95
2023-02-12T08:44:28.741Z,102396.35
2023-02-12T08:46:57.308Z,102395.46
2023-02-12T08:49:30.564Z,102393.88
2023-02-12T08:52:01.969Z,102388.74
2023-02-12T08:54:31.733Z,102395.08
2023-02-12T08:57:02.138Z,102400.83
2023-02-12T08:59:31.046Z,102408.41
2023-02-12T09:02:00.837Z,102411.86
2023-02-12T09:04:30.425Z,102419.72
2023-02-12T09:06:59.017Z,102430.40
2023-02-12T09:09:27.305Z,102432.77
2023-02-12T09:11:55.786Z,102435.06
2023-02-12T09:14:24.948Z,102430.11
2023-02-12T09:16:54.669Z,102430.79
2023-02-12T09:19:23.425Z,102435.64
2023-02-12T09:21:55.497Z,102441.91
2023-02-12T09:24:27.841Z,102447.67
2023-02-12T09:26:57.268Z,102440.16
2023-02-12T09:29:25.830Z,102443.00
2023-02-12T09:31:54.322Z,102446.85
2023-02-12T09:34:22.763Z,102454.60
2023-02-12T09:36:51.082Z,102450.96
2023-02-12T09:39:22.336Z,102449.33
2023-02-12T09:41:50.613Z,102456.14
2023-02-12T09:44:22.584Z,102464.01
2023-02-12T09:47:20.656Z,102463.02
2023-02-12T09:50:00.898Z,102461.41
2023-02-12T09:52:30.365Z,102456.44
2023-02-12T09:54:59.457Z,102460.18
2023-02-12T09:57:35.881Z,102470.13
2023-02-12T10:00:31.483Z,102481.20
2023-02-12T10:03:05.971Z,102482.54
2023-02-12T10:05:41.259Z,102492.34
2023-02-12T10:08:46.072Z,102489.09
2023-02-12T10:11:26.016Z,102493.40
2023-02-12T10:14:42.304Z,102486.84
2023-02-12T10:17:37.005Z,102491.48
2023-02-12T10:20:41.513Z,102497.92
2023-02-12T10:23:28.737Z,102500.85
2023-02-12T10:26:00.067Z,102512.24
2023-02-12T10:28:35.889Z,102511.98
2023-02-12T10:31:16.418Z,102515.88
2023-02-12T10:33:49.137Z,102515.35
2023-02-12T10:36:24.492Z,102516.70
2023-02-12T10:38:59.221Z,102520.41
2023-02-12T10:41:30.573Z,102519.94
2023-02-12T10:44:00.285Z,102532.20
2023-02-12T10:46:32.215Z,102533.11
2023-02-12T10:49:01.131Z,102530.50
2023-02-12T10:51:49.028Z,102531.85
2023-02-12T10:54:44.077Z,102519.15
2023-02-12T10:57:31.307Z,102528.05
2023-02-12T11:00:25.047Z,102531.38
2023-02-12T11:03:04.593Z,102536.98
2023-02-12T11:05:36.598Z,102543.25
2023-02-12T11:08:06.369Z,102542.39
2023-02-12T11:10:42.232Z,102541.33
2023-02-12T11:13:28.211Z,102537.36
2023-02-12T11:15:56.821Z,102549.60
2023-02-12T11:18:28.865Z,102553.48
2023-02-12T11:20:58.549Z,102562.51
2023-02-12T11:23:38.137Z,102559.33
2023-02-12T11:26:07.638Z,102559.45
2023-02-12T11:28:37.273Z,102558.60
2023-02-12T11:31:23.418Z,102559.52
2023-02-12T11:34:17.467Z,102566.61
2023-02-12T11:36:50.804Z,102567.27
2023-02-12T11:39:24.923Z,102579.17
2023-02-12T11:41:59.942Z,102583.69
2023-02-12T11:44:38.566Z,102590.11
2023-02-12T11:47:10.945Z,102597.69
2023-02-12T11:49:44.383Z,102612.73
2023-02-12T11:52:22.018Z,102611.95
2023-02-12T11:54:53.806Z,102605.86
2023-02-12T11:57:48.587Z,102607.04
2023-02-12T12:00:29.563Z,102607.98
2023-02-12T12:03:13.807Z,102612.05
2023-02-12T12:05:54.796Z,102605.63
2023-02-12T12:08:36.265Z,102610.20
2023-02-12T12:11:13.038Z,102612.57
2023-02-12T12:13:51.754Z,102615.53
2023-02-12T12:16:49.716Z,102620.73
2023-02-12T12:19:53.313Z,102622.95
2023-02-12T12:22:48.598Z,102632.06
2023-02-12T12:25:27.583Z,102634.34
2023-02-12T12:28:41.014Z,102644.59
2023-02-12T12:31:36.171Z,102646.31
2023-02-12T12:34:13.429Z,102647.81
2023-02-12T12:37:06.370Z,102651.02
2023-02-12T12:39:45.411Z,102650.08
2023-02-12T12:43:11.804Z,102656.50
2023-02-12T12:45:43.294Z,102660.73
2023-02-12T12:48:34.425Z,102658.05
2023-02-12T12:51:25.271Z,102667.52
2023-02-12T12:54:11.654Z,102668.21
2023-02-12T12:56:45.268Z,102667.10
2023-02-12T12:59:25.309Z,102684.14
2023-02-12T13:01:56.767Z,102680.39
2023-02-12T13:04:49.708Z,102681.73
2023-02-12T13:07:39.381Z,102676.06
2023-02-12T13:10:23.420Z,102683.70
2023-02-12T13:13:07.064Z,102680.88
2023-02-12T13:15:54.513Z,102688.91
2023-02-12T13:18:55.294Z,102690.11
2023-02-12T13:21:37.912Z,102691.38
2023-02-12T13:24:28.706Z,102699.64
2023-02-12T13:27:04.787Z,102698.66
2023-02-12T13:29:42.148Z,102701.13
2023-02-12T13:32:22.750Z,102700.71
2023-02-12T13:34:53.614Z,102705.47
2023-02-12T13:37:40.354Z,102714.35
2023-02-12T13:40:19.110Z,102723.06
2023-02-12T13:43:06.184Z,102731.05
2023-02-12T13:45:44.949Z,102739.22
2023-02-12T13:48:54.634Z,102741.30
2023-02-12T13:51:31.509Z,102753.91
2023-02-12T13:54:21.800Z,102755.41
2023-02-12T13:57:14.953Z,102761.89
2023-02-12T13:59:44.257Z,102757.64
2023-02-12T14:02:12.902Z,102770.10
2023-02-12T14:04:48.080Z,102768.02
2023-02-12T14:07:16.961Z,102770.42
2023-02-12T14:09:51.095Z,102773.52
2023-02-12T14:12:25.717Z,102776.11
2023-02-12T14:15:31.268Z,102781.61
2023-02-12T14:18:02.608Z,102784.52
2023-02-12T14:20:32.421Z,102787.31
2023-02-12T14:23:02.488Z,102787.39
2023-02-12T14:25:44.442Z,102785.31
2023-02-12T14:28:37.194Z,102782.12
2023-02-12T14:31:23.895Z,102785.30
2023-02-12T14:34:13.031Z,102787.52
2023-02-12T14:36:46.636Z,102798.19
2023-02-12T14:39:20.961Z,102805.73
2023-02-12T14:41:50.268Z,102817.14
2023-02-12T14:44:18.574Z,102819.16
2023-02-12T14:46:51.120Z,102823.34
2023-02-12T14:49:46.929Z,102820.74
2023-02-12T14:52:40.604Z,102826.22
2023-02-12T14:55:22.588Z,102837.85
2023-02-12T14:57:55.883Z,102837.67
2023-02-12T15:00:34.525Z,102846.01
2023-02-12T15:03:15.596Z,102844.84
2023-02-12T15:06:10.769Z,102848.49
2023-02-12T15:08:47.750Z,102851.30
2023-02-12T15:11:38.856Z,102852.45
2023-02-12T15:14:28.425Z,102860.14
2023-02-12T15:17:06.224Z,102870.39
2023-02-12T15:19:37.473Z,102875.31
2023-02-12T15:22:18.859Z,102879.98
2023-02-12T15:24:47.346Z,102882.69
2023-02-12T15:27:16.641Z,102886.30
2023-02-12T15:29:55.362Z,102897.11
2023-02-12T15:32:29.146Z,102901.59
2023-02-12T15:34:57.355Z,102909.60
2023-02-12T15:37:30.890Z,102916.77
2023-02-12T15:40:08.860Z,102921.36
2023-02-12T15:42:40.563Z,102924.73
2023-02-12T15:45:14.955Z,102932.22
2023-02-12T15:47:45.102Z,102934.08
2023-02-12T15:50:18.069Z,102942.02
2023-02-12T15:52:48.176Z,102949.43
2023-02-12T15:55:20.553Z,102959.34
2023-02-12T15:57:54.496Z,102965.39
2023-02-12T16:00:43.351Z,102967.73
2023-02-12T16:03:31.961Z,102981.73
2023-02-12T16:06:05.256Z,102987.40
2023-02-12T16:08:35.738Z,102990.50
2023-02-12T16:11:14.234Z,102991.29
2023-02-12T16:13:48.328Z,102993.67
2023-02-12T16:16:22.472Z,102995.36
2023-02-12T16:19:05.675Z,102992.23
2023-02-12T16:21:38.306Z,102998.53
2023-02-12T16:24:39.060Z,103007.07
2023-02-12T16:27:24.642Z,103014.55
2023-02-12T16:29:59.676Z,103018.65
2023-02-12T16:32:30.311Z,103018.84
2023-02-12T16:35:07.797Z,103019.59
2023-02-12T16:37:39.051Z,103021.75
2023-02-12T16:40:13.480Z,103027.95
2023-02-12T16:42:47.808Z,103034.86
2023-02-12T16:45:26.718Z,103043.58
2023-02-12T16:47:59.809Z,103040.84
2023-02-12T16:50:34.229Z,103052.77
2023-02-12T16:53:06.915Z,103054.43
2023-02-12T16:55:36.940Z,103055.75
2023-02-12T16:58:05.940Z,103057.92
2023-02-12T17:00:34.523Z,103063.25
2023-02-12T17:03:03.025Z,103062.75
2023-02-12T17:05:31.978Z,103064.40
2023-02-12T17:08:00.394Z,103066.55
2023-02-12T17:10:28.882Z,103079.45
2023-02-12T17:12:57.576Z,103084.41
2023-02-12T17:15:34.668Z,103088.84
2023-02-12T17:18:03.396Z,103091.85
2023-02-12T17:20:31.837Z,103093.46
2023-02-12T17:23:01.250Z,103093.31
2023-02-12T17:25:30.566Z,103094.23
2023-02-12T17:27:59.069Z,103097.23
2023-02-12T17:30:29.267Z,103103.42
2023-02-12T17:32:57.558Z,103105.55
2023-02-12T17:35:26.356Z,103114.03
2023-02-12T17:37:54.796Z,103111.04
2023-02-12T17:40:23.521Z,103119.02
2023-02-12T17:42:52.109Z,103119.38
2023-02-12T17:45:20.704Z,103124.00
2023-02-12T17:47:50.209Z,103127.56
2023-02-12T17:50:19.210Z,103128.11
2023-02-12T17:52:47.999Z,103130.45
2023-02-12T17:55:18.017Z,103136.65
2023-02-12T17:57:53.772Z,103138.80
2023-02-12T18:00:23.709Z,103140.77
2023-02-12T18:02:52.964Z,103139.55
2023-02-12T18:05:21.893Z,103139.58
2023-02-12T18:07:50.687Z,103145.94
2023-02-12T18:10:22.139Z,103150.70
2023-02-12T18:12:50.628Z,103148.75
2023-02-12T18:15:21.366Z,103146.83
2023-02-12T18:17:49.961Z,103145.60
2023-02-12T18:20:18.646Z,103150.36
2023-02-12T18:22:47.811Z,103147.19
2023-02-12T18:25:18.074Z,103145.43
2023-02-12T18:27:47.380Z,103145.61
2023-02-12T18:30:16.390Z,103149.30
2023-02-12T18:32:44.769Z,103155.83
2023-02-12T18:35:13.248Z,103157.23
2023-02-12T18:37:43.361Z,103161.83
2023-02-12T18:40:12.387Z,103170.98
2023-02-12T18:42:41.268Z,103170.11
2023-02-12T18:45:10.478Z,103174.16
2023-02-12T18:47:38.761Z,103179.44
2023-02-12T18:50:08.306Z,103177.85
2023-02-12T18:52:37.552Z,103185.42
2023-02-12T18:55:07.400Z,103189.81
2023-02-12T18:57:35.769Z,103194.05
2023-02-12T19:00:05.231Z,103198.10
2023-02-12T19:02:33.563Z,103198.11
2023-02-12T19:05:04.758Z,103208.34
2023-02-12T19:07:33.109Z,103207.63
2023-02-12T19:10:01.440Z,103204.63
2023-02-12T19:12:30.279Z,103209.56
2023-02-12T19:14:58.654Z,103214.67
2023-02-12T19:17:28.164Z,103213.95
2023-02-12T19:19:56.653Z,103215.20
2023-02-12T19:22:25.240Z,103217.84
2023-02-12T19:24:53.734Z,103220.84
2023-02-12T19:27:22.320Z,103218.38
2023-02-12T19:29:50.800Z,103220.66
2023-02-12T19:32:19.024Z,103218.91
2023-02-12T19:34:47.984Z,103217.33
2023-02-12T19:37:16.570Z,103214.69
2023-02-12T19:39:44.955Z,103210.63
2023-02-12T19:42:15.029Z,103212.39
2023-02-12T19:44:44.629Z,103209.04
2023-02-12T19:47:12.985Z,103211.33
2023-02-12T19:49:42.512Z,103214.32
2023-02-12T19:52:11.176Z,103213.44
2023-02-12T19:54:39.465Z,103218.37
2023-02-12T19:57:09.861Z,103219.06
2023-02-12T19:59:39.135Z,103218.19
2023-02-12T20:02:07.480Z,103219.25
2023-02-12T20:04:35.965Z,103218.35
2023-02-12T20:07:05.068Z,103217.47
2023-02-12T20:09:34.169Z,103215.54
2023-02-12T20:12:03.696Z,103212.02
2023-02-12T20:14:32.165Z,103209.02
2023-02-12T20:17:00.963Z,103217.83
2023-02-12T20:19:32.209Z,103214.32
2023-02-12T20:22:02.313Z,103218.20
2023-02-12T20:24:34.111Z,103218.38
2023-02-12T20:27:03.676Z,103213.80
2023-02-12T20:29:33.019Z,103219.97
2023-02-12T20:32:01.490Z,103214.85
2023-02-12T20:34:34.769Z,103215.39
2023-02-12T20:37:10.858Z,103219.25
2023-02-12T20:39:39.242Z,103217.13
2023-02-12T20:42:07.728Z,103217.66
2023-02-12T20:44:36.111Z,103209.05
2023-02-12T20:47:04.397Z,103202.70
2023-02-12T20:49:32.674Z,103201.29
2023-02-12T20:52:01.279Z,103210.44
2023-02-12T20:54:29.546Z,103209.73
2023-02-12T20:56:58.030Z,103211.14
2023-02-12T20:59:26.624Z,103214.29
2023-02-12T21:01:55.121Z,103213.60
2023-02-12T21:04:23.703Z,103210.95
2023-02-12T21:06:52.395Z,103207.78
2023-02-12T21:09:20.777Z,103204.97
2023-02-12T21:11:49.775Z,103207.24
2023-02-12T21:14:22.426Z,103206.71
2023-02-12T21:16:54.385Z,103210.93
2023-02-12T21:19:23.316Z,103210.40
2023-02-12T21:21:52.115Z,103222.02
2023-02-12T21:24:26.129Z,103217.80
2023-02-12T21:26:55.742Z,103213.73
2023-02-12T21:29:24.216Z,103208.11
2023-02-12T21:31:52.762Z,103202.31
2023-02-12T21:34:23.187Z,103201.61
2023-02-12T21:36:55.094Z,103200.89
2023-02-12T21:39:27.669Z,103200.70
2023-02-12T21:42:03.109Z,103197.89
2023-02-12T21:44:35.489Z,103191.20
2023-02-12T21:47:05.405Z,103199.27
2023-02-12T21:49:33.827Z,103197.88
2023-02-12T21:52:04.443Z,103205.45
2023-02-12T21:54:33.548Z,103198.77
2023-02-12T21:57:01.935Z,103205.98
2023-02-12T21:59:32.406Z,103208.29
2023-02-12T22:02:02.048Z,103211.13
2023-02-12T22:04:30.693Z,103212.00
2023-02-12T22:07:03.530Z,103209.20
2023-02-12T22:09:32.369Z,103207.08
2023-02-12T22:12:00.764Z,103204.63
2023-02-12T22:14:29.323Z,103198.96
2023-02-12T22:16:57.609Z,103202.32
2023-02-12T22:19:25.872Z,103203.02
2023-02-12T22:21:54.354Z,103201.07
2023-02-12T22:24:22.856Z,103206.52
2023-02-12T22:26:51.229Z,103205.62
2023-02-12T22:29:19.992Z,103205.41
2023-02-12T22:31:48.893Z,103211.21
2023-02-12T22:34:19.167Z,103208.90
2023-02-12T22:36:48.458Z,103204.48
2023-02-12T22:39:17.936Z,103203.38
2023-02-12T22:41:46.650Z,103199.68
2023-02-12T22:44:17.018Z,103203.36
2023-02-12T22:46:45.677Z,103203.88
2023-02-12T22:49:14.666Z,103198.58
2023-02-12T22:51:43.050Z,103198.38
2023-02-12T22:54:15.430Z,103203.10
2023-02-12T22:56:44.655Z,103202.35
2023-02-12T22:59:13.435Z,103200.05
2023-02-12T23:01:42.521Z,103199.68
2023-02-12T23:04:16.764Z,103193.19
2023-02-12T23:06:45.865Z,103194.26
2023-02-12T23:09:17.877Z,103197.79
2023-02-12T23:11:47.033Z,103191.83
2023-02-12T23:14:15.287Z,103185.51
2023-02-12T23:16:43.939Z,103192.39
2023-02-12T23:19:13.168Z,103196.08
2023-02-12T23:21:42.087Z,103192.42
2023-02-12T23:24:15.129Z,103191.02
2023-02-12T23:26:43.802Z,103194.21
2023-02-12T23:29:12.271Z,103197.75
2023-02-12T23:31:40.766Z,103193.88
2023-02-12T23:34:09.448Z,103190.36
2023-02-12T23:36:37.629Z,103193.36
2023-02-12T23:39:06.259Z,103191.95
2023-02-12T23:41:34.807Z,103190.16
2023-02-12T23:44:04.037Z,103188.20
2023-02-12T23:46:32.412Z,103198.70
2023-02-12T23:49:00.894Z,103203.44
2023-02-12T23:51:30.927Z,103199.73
2023-02-12T23:53:59.196Z,103198.80
2023-02-12T23:56:27.735Z,103201.20
2023-02-12T23:58:57.593Z,103201.16
